createdAt,value
2017-09-26T00:00:16.247Z,92.10
2017-09-26T00:02:43.863Z,92.10
2017-09-26T00:05:11.513Z,92.10
2017-09-26T00:07:39.122Z,92.10
2017-09-26T00:10:06.833Z,92.00
2017-09-26T00:12:34.478Z,92.10
2017-09-26T00:15:02.864Z,92.30
2017-09-26T00:17:31.244Z,92.30
2017-09-26T00:19:58.920Z,92.20
2017-09-26T00:22:26.524Z,92.20
2017-09-26T00:24:54.148Z,92.30
2017-09-26T00:27:22.571Z,92.60
2017-09-26T00:29:50.192Z,92.20
2017-09-26T00:32:17.806Z,92.20
2017-09-26T00:34:46.242Z,92.10
2017-09-26T00:37:13.873Z,92.10
2017-09-26T00:39:41.524Z,92.20
2017-09-26T00:42:09.291Z,92.20
2017-09-26T00:44:36.857Z,92.30
2017-09-26T00:47:05.195Z,92.30
2017-09-26T00:49:32.834Z,92.20
2017-09-26T00:52:00.440Z,92.20
2017-09-26T00:54:28.015Z,92.00
2017-09-26T00:56:55.651Z,92.20
2017-09-26T00:59:23.224Z,92.20
2017-09-26T01:01:50.802Z,92.10
2017-09-26T01:04:18.604Z,92.00
2017-09-26T01:06:47.082Z,91.80
2017-09-26T01:09:14.654Z,91.80
2017-09-26T01:11:42.286Z,91.90
2017-09-26T01:14:10.623Z,91.90
2017-09-26T01:16:38.195Z,91.90
2017-09-26T01:19:06.578Z,91.80
2017-09-26T01:21:34.159Z,91.70
2017-09-26T01:24:01.746Z,91.70
2017-09-26T01:26:30.323Z,91.90
2017-09-26T01:28:59.570Z,91.90
2017-09-26T01:31:27.150Z,91.80
2017-09-26T01:33:54.994Z,91.80
2017-09-26T01:36:23.343Z,91.90
2017-09-26T01:38:51.683Z,91.90
2017-09-26T01:41:21.094Z,91.90
2017-09-26T01:43:49.440Z,92.10
2017-09-26T01:46:17.024Z,92.00
2017-09-26T01:48:44.750Z,92.10
2017-09-26T01:51:13.085Z,92.00
2017-09-26T01:53:40.662Z,92.00
2017-09-26T01:56:09.150Z,92.10
2017-09-26T01:58:37.526Z,92.10
2017-09-26T02:01:05.104Z,92.20
2017-09-26T02:03:32.725Z,92.20
2017-09-26T02:06:00.320Z,92.10
2017-09-26T02:08:28.666Z,92.10
2017-09-26T02:10:56.297Z,92.10
2017-09-26T02:13:23.874Z,92.20
2017-09-26T02:15:52.211Z,92.30
2017-09-26T02:18:19.977Z,92.30
2017-09-26T02:20:48.314Z,92.20
2017-09-26T02:23:15.898Z,92.10
2017-09-26T02:25:44.458Z,92.20
2017-09-26T02:28:12.803Z,91.90
2017-09-26T02:30:41.154Z,92.00
2017-09-26T02:33:08.926Z,91.90
2017-09-26T02:35:37.269Z,92.00
2017-09-26T02:38:04.861Z,91.90
2017-09-26T02:40:32.486Z,92.00
2017-09-26T02:43:00.080Z,92.10
2017-09-26T02:45:27.654Z,92.10
2017-09-26T02:47:56.055Z,92.00
2017-09-26T02:50:23.632Z,91.90
2017-09-26T02:52:51.216Z,92.10
2017-09-26T02:55:19.707Z,92.20
2017-09-26T02:57:47.285Z,92.20
2017-09-26T03:00:14.851Z,92.20
2017-09-26T03:02:42.476Z,92.20
2017-09-26T03:05:10.057Z,92.30
2017-09-26T03:07:38.407Z,92.30
2017-09-26T03:10:06.167Z,92.30
2017-09-26T03:12:34.511Z,92.70
2017-09-26T03:15:02.858Z,92.70
2017-09-26T03:17:30.634Z,92.30
2017-09-26T03:19:58.978Z,92.20
2017-09-26T03:22:26.546Z,92.30
2017-09-26T03:24:54.943Z,92.40
2017-09-26T03:27:22.518Z,92.40
2017-09-26T03:29:50.093Z,92.40
2017-09-26T03:32:18.478Z,92.50
2017-09-26T03:34:46.050Z,92.40
2017-09-26T03:37:14.108Z,92.40
2017-09-26T03:39:41.955Z,92.40
2017-09-26T03:42:09.526Z,92.50
2017-09-26T03:44:37.097Z,92.60
2017-09-26T03:47:05.638Z,92.60
2017-09-26T03:49:33.210Z,92.50
2017-09-26T03:52:00.784Z,92.60
2017-09-26T03:54:28.422Z,92.60
2017-09-26T03:56:55.995Z,92.60
2017-09-26T03:59:23.589Z,92.70
2017-09-26T04:01:51.327Z,92.80
2017-09-26T04:04:19.685Z,92.70
2017-09-26T04:06:48.030Z,92.80
2017-09-26T04:09:15.759Z,92.70
2017-09-26T04:11:43.342Z,92.90
2017-09-26T04:14:11.689Z,92.90
2017-09-26T04:16:40.273Z,93.00
2017-09-26T04:19:08.618Z,92.90
2017-09-26T04:21:36.194Z,92.90
2017-09-26T04:24:03.927Z,92.90
2017-09-26T04:26:31.513Z,93.00
2017-09-26T04:28:59.094Z,92.90
2017-09-26T04:31:26.860Z,92.90
2017-09-26T04:33:55.198Z,92.90
2017-09-26T04:36:22.766Z,92.90
2017-09-26T04:38:51.150Z,93.00
2017-09-26T04:41:18.728Z,93.00
2017-09-26T04:43:46.291Z,92.90
2017-09-26T04:46:13.919Z,92.90
2017-09-26T04:48:41.490Z,93.00
2017-09-26T04:51:10.554Z,93.00
2017-09-26T04:53:38.330Z,93.00
2017-09-26T04:56:06.669Z,93.00
2017-09-26T04:58:35.751Z,93.10
2017-09-26T05:01:04.538Z,93.10
2017-09-26T05:03:32.883Z,93.10
2017-09-26T05:06:00.494Z,93.10
2017-09-26T05:08:28.297Z,93.10
2017-09-26T05:10:55.879Z,93.00
2017-09-26T05:13:23.450Z,93.00
2017-09-26T05:15:51.082Z,93.00
2017-09-26T05:18:18.661Z,93.00
2017-09-26T05:20:47.003Z,93.10
2017-09-26T05:23:14.619Z,93.10
2017-09-26T05:25:42.193Z,93.10
2017-09-26T05:28:09.753Z,93.20
2017-09-26T05:30:38.334Z,93.30
2017-09-26T05:33:06.682Z,93.10
2017-09-26T05:35:34.255Z,93.10
2017-09-26T05:38:01.866Z,93.00
2017-09-26T05:40:29.492Z,93.00
2017-09-26T05:42:57.066Z,92.90
2017-09-26T05:45:25.459Z,92.80
2017-09-26T05:47:53.035Z,92.80
2017-09-26T05:50:20.814Z,92.80
2017-09-26T05:52:49.272Z,92.90
2017-09-26T05:55:16.867Z,92.60
2017-09-26T05:57:44.670Z,92.70
2017-09-26T06:00:12.287Z,92.60
2017-09-26T06:02:40.300Z,92.70
2017-09-26T06:05:07.870Z,92.60
2017-09-26T06:07:35.569Z,92.60
2017-09-26T06:10:03.898Z,92.60
2017-09-26T06:12:31.545Z,92.60
2017-09-26T06:14:59.172Z,92.50
2017-09-26T06:17:26.750Z,92.40
2017-09-26T06:19:54.322Z,92.40
2017-09-26T06:22:21.955Z,92.30
2017-09-26T06:24:50.296Z,92.30
2017-09-26T06:27:20.671Z,92.30
2017-09-26T06:29:48.477Z,92.50
2017-09-26T06:32:16.810Z,92.10
2017-09-26T06:34:44.382Z,92.10
2017-09-26T06:37:12.822Z,92.00
2017-09-26T06:39:40.398Z,92.00
2017-09-26T06:42:07.970Z,91.80
2017-09-26T06:44:35.604Z,91.90
2017-09-26T06:47:03.180Z,91.70
2017-09-26T06:49:30.755Z,91.70
2017-09-26T06:51:59.162Z,92.10
2017-09-26T06:54:26.738Z,91.80
2017-09-26T06:56:54.305Z,91.80
2017-09-26T06:59:22.707Z,91.70
2017-09-26T07:01:50.283Z,91.70
2017-09-26T07:04:18.306Z,91.70
2017-09-26T07:06:46.122Z,91.70
2017-09-26T07:09:14.466Z,91.60
2017-09-26T07:11:42.798Z,91.70
2017-09-26T07:14:10.422Z,91.70
2017-09-26T07:16:38.000Z,91.60
2017-09-26T07:19:05.574Z,91.50
2017-09-26T07:21:34.145Z,91.50
2017-09-26T07:24:02.482Z,91.50
2017-09-26T07:26:30.051Z,91.50
2017-09-26T07:28:58.446Z,91.50
2017-09-26T07:31:26.018Z,91.50
2017-09-26T07:33:53.596Z,91.50
2017-09-26T07:36:21.990Z,91.30
2017-09-26T07:38:49.566Z,91.30
2017-09-26T07:41:17.135Z,91.10
2017-09-26T07:43:44.863Z,91.10
2017-09-26T07:46:12.430Z,91.20
2017-09-26T07:48:41.594Z,91.00
2017-09-26T07:51:09.215Z,91.00
2017-09-26T07:53:36.786Z,90.90
2017-09-26T07:56:04.349Z,90.80
2017-09-26T07:58:32.060Z,90.80
2017-09-26T08:00:59.978Z,90.70
2017-09-26T08:03:27.801Z,90.90
2017-09-26T08:05:56.508Z,90.70
2017-09-26T08:08:24.338Z,90.70
2017-09-26T08:10:52.662Z,90.70
2017-09-26T08:13:20.278Z,90.70
2017-09-26T08:15:47.858Z,90.70
2017-09-26T08:18:15.425Z,90.70
2017-09-26T08:20:43.813Z,90.70
2017-09-26T08:23:11.375Z,91.10
2017-09-26T08:25:38.950Z,90.80
2017-09-26T08:28:06.659Z,91.00
2017-09-26T08:30:34.230Z,91.10
2017-09-26T08:33:01.809Z,90.90
2017-09-26T08:35:30.190Z,90.90
2017-09-26T08:37:57.750Z,90.90
2017-09-26T08:40:25.342Z,90.60
2017-09-26T08:42:53.746Z,90.10
2017-09-26T08:45:21.306Z,90.10
2017-09-26T08:47:48.874Z,90.00
2017-09-26T08:50:16.487Z,90.10
2017-09-26T08:52:44.065Z,90.00
2017-09-26T08:55:11.642Z,90.10
2017-09-26T08:57:40.034Z,90.10
2017-09-26T09:00:07.601Z,90.40
2017-09-26T09:02:35.166Z,90.30
2017-09-26T09:05:02.939Z,90.30
2017-09-26T09:07:31.274Z,90.30
2017-09-26T09:09:58.863Z,90.20
2017-09-26T09:12:26.479Z,90.10
2017-09-26T09:14:54.823Z,90.30
2017-09-26T09:17:22.391Z,90.30
2017-09-26T09:19:50.794Z,90.50
2017-09-26T09:22:18.380Z,90.50
2017-09-26T09:24:45.950Z,90.50
2017-09-26T09:27:14.434Z,90.40
2017-09-26T09:29:42.027Z,90.40
2017-09-26T09:32:09.598Z,90.40
2017-09-26T09:34:38.126Z,90.40
2017-09-26T09:37:05.695Z,90.40
2017-09-26T09:39:33.253Z,90.10
2017-09-26T09:42:01.634Z,90.00
2017-09-26T09:44:29.206Z,90.00
2017-09-26T09:46:56.780Z,89.90
2017-09-26T09:49:24.411Z,89.20
2017-09-26T09:51:51.978Z,88.80
2017-09-26T09:54:20.415Z,89.50
2017-09-26T09:56:48.050Z,89.00
2017-09-26T09:59:15.619Z,89.30
2017-09-26T10:01:43.189Z,89.70
2017-09-26T10:04:11.672Z,90.00
2017-09-26T10:06:39.256Z,90.00
2017-09-26T10:09:06.826Z,89.80
2017-09-26T10:11:34.466Z,89.60
2017-09-26T10:14:02.803Z,89.60
2017-09-26T10:16:30.375Z,89.50
2017-09-26T10:18:58.906Z,89.40
2017-09-26T10:21:26.487Z,89.30
2017-09-26T10:23:54.819Z,88.70
2017-09-26T10:26:22.607Z,89.10
2017-09-26T10:28:50.943Z,88.50
2017-09-26T10:31:18.514Z,88.50
2017-09-26T10:33:46.899Z,88.60
2017-09-26T10:36:14.470Z,88.50
2017-09-26T10:38:42.044Z,88.70
2017-09-26T10:41:09.678Z,88.60
2017-09-26T10:43:37.353Z,88.70
2017-09-26T10:46:05.694Z,88.40
2017-09-26T10:48:33.533Z,88.30
2017-09-26T10:51:01.107Z,88.40
2017-09-26T10:53:29.442Z,87.00
2017-09-26T10:55:57.057Z,87.00
2017-09-26T10:58:24.627Z,86.70
2017-09-26T11:00:52.195Z,86.00
2017-09-26T11:03:20.569Z,85.10
2017-09-26T11:05:48.902Z,85.10
2017-09-26T11:08:16.477Z,85.10
2017-09-26T11:10:44.134Z,85.60
2017-09-26T11:13:11.706Z,86.10
2017-09-26T11:15:39.262Z,86.70
2017-09-26T11:18:06.882Z,87.00
2017-09-26T11:20:34.461Z,86.80
2017-09-26T11:23:02.035Z,86.70
2017-09-26T11:25:30.418Z,86.20
2017-09-26T11:27:58.005Z,86.20
2017-09-26T11:30:25.574Z,85.90
2017-09-26T11:32:53.199Z,85.70
2017-09-26T11:35:20.767Z,85.60
2017-09-26T11:37:49.107Z,84.00
2017-09-26T11:40:16.718Z,84.00
2017-09-26T11:42:44.286Z,83.30
2017-09-26T11:45:11.892Z,83.70
2017-09-26T11:47:39.605Z,83.80
2017-09-26T11:50:07.182Z,84.10
2017-09-26T11:52:34.754Z,84.20
2017-09-26T11:55:02.545Z,83.60
2017-09-26T11:57:30.982Z,83.40
2017-09-26T11:59:58.565Z,83.40
2017-09-26T12:02:26.962Z,83.00
2017-09-26T12:04:54.530Z,83.00
2017-09-26T12:07:22.096Z,82.70
2017-09-26T12:09:49.718Z,82.60
2017-09-26T12:12:17.288Z,82.90
2017-09-26T12:14:44.875Z,82.70
2017-09-26T12:17:12.707Z,82.70
2017-09-26T12:19:40.300Z,82.50
2017-09-26T12:22:07.877Z,82.60
2017-09-26T12:24:36.262Z,83.10
2017-09-26T12:27:03.850Z,83.80
2017-09-26T12:29:31.418Z,83.20
2017-09-26T12:31:59.043Z,83.40
2017-09-26T12:34:26.614Z,82.90
2017-09-26T12:36:54.950Z,81.70
2017-09-26T12:39:24.083Z,81.60
2017-09-26T12:41:51.645Z,81.50
2017-09-26T12:44:19.214Z,81.20
2017-09-26T12:46:46.838Z,81.00
2017-09-26T12:49:14.406Z,79.90
2017-09-26T12:51:41.970Z,80.40
2017-09-26T12:54:09.690Z,80.10
2017-09-26T12:56:37.268Z,80.10
2017-09-26T12:59:05.607Z,80.20
2017-09-26T13:01:33.446Z,79.90
2017-09-26T13:04:01.034Z,79.60
2017-09-26T13:06:29.367Z,79.30
2017-09-26T13:08:56.986Z,79.30
2017-09-26T13:11:24.555Z,79.30
2017-09-26T13:13:52.122Z,79.70
2017-09-26T13:16:20.502Z,78.70
2017-09-26T13:18:48.072Z,78.70
2017-09-26T13:21:15.639Z,77.70
2017-09-26T13:23:43.418Z,77.70
2017-09-26T13:26:11.747Z,77.70
2017-09-26T13:28:39.310Z,77.70
2017-09-26T13:31:07.072Z,77.60
2017-09-26T13:33:35.408Z,78.00
2017-09-26T13:36:02.973Z,78.00
2017-09-26T13:38:31.404Z,77.80
2017-09-26T13:40:58.981Z,77.80
2017-09-26T13:43:27.324Z,77.60
2017-09-26T13:45:54.959Z,77.60
2017-09-26T13:48:22.536Z,78.50
2017-09-26T13:50:50.960Z,79.10
2017-09-26T13:53:18.726Z,78.30
2017-09-26T13:55:46.298Z,77.80
2017-09-26T13:58:14.647Z,78.10
2017-09-26T14:00:43.031Z,78.50
2017-09-26T14:03:10.604Z,78.60
2017-09-26T14:05:38.590Z,78.90
2017-09-26T14:08:06.202Z,77.40
2017-09-26T14:10:33.781Z,77.90
2017-09-26T14:13:01.346Z,77.30
2017-09-26T14:15:29.738Z,78.20
2017-09-26T14:17:57.314Z,78.20
2017-09-26T14:20:24.894Z,78.20
2017-09-26T14:22:53.482Z,77.80
2017-09-26T14:25:21.058Z,77.70
2017-09-26T14:27:48.630Z,78.00
2017-09-26T14:30:16.353Z,78.00
2017-09-26T14:32:43.957Z,77.30
2017-09-26T14:35:11.545Z,76.60
2017-09-26T14:37:39.298Z,76.00
2017-09-26T14:40:07.047Z,76.50
2017-09-26T14:42:34.638Z,76.40
2017-09-26T14:45:02.906Z,76.50
2017-09-26T14:47:30.472Z,76.90
2017-09-26T14:49:58.897Z,76.70
2017-09-26T14:52:27.307Z,77.20
2017-09-26T14:54:55.192Z,77.20
2017-09-26T14:57:23.636Z,77.90
2017-09-26T14:59:51.406Z,77.80
2017-09-26T15:02:19.751Z,78.00
2017-09-26T15:04:47.326Z,77.90
2017-09-26T15:07:15.719Z,77.80
2017-09-26T15:09:43.736Z,77.80
2017-09-26T15:12:11.357Z,78.30
2017-09-26T15:14:39.226Z,78.10
2017-09-26T15:17:06.818Z,78.30
2017-09-26T15:19:34.391Z,78.60
2017-09-26T15:22:02.173Z,78.50
2017-09-26T15:24:30.501Z,78.70
2017-09-26T15:26:58.070Z,78.60
2017-09-26T15:29:26.460Z,78.50
2017-09-26T15:31:54.043Z,78.50
2017-09-26T15:34:22.267Z,78.60
2017-09-26T15:36:50.168Z,78.80
2017-09-26T15:39:17.942Z,79.10
2017-09-26T15:41:46.277Z,80.30
2017-09-26T15:44:14.059Z,80.30
2017-09-26T15:46:43.381Z,80.90
2017-09-26T15:49:11.069Z,80.90
2017-09-26T15:51:39.453Z,81.20
2017-09-26T15:54:07.798Z,81.40
2017-09-26T15:56:35.372Z,81.30
2017-09-26T15:59:03.114Z,82.40
2017-09-26T16:01:30.682Z,81.90
2017-09-26T16:03:58.256Z,81.90
2017-09-26T16:06:25.877Z,82.10
2017-09-26T16:08:53.450Z,82.50
2017-09-26T16:11:21.806Z,82.90
2017-09-26T16:13:49.427Z,82.80
2017-09-26T16:16:16.996Z,83.00
2017-09-26T16:18:44.583Z,83.30
2017-09-26T16:21:12.280Z,83.50
2017-09-26T16:23:39.868Z,83.60
2017-09-26T16:28:36.341Z,84.20
2017-09-26T16:31:03.991Z,84.40
2017-09-26T16:33:31.944Z,84.70
2017-09-26T16:35:59.586Z,85.00
2017-09-26T16:38:27.154Z,85.30
2017-09-26T16:40:54.786Z,85.40
2017-09-26T16:43:22.562Z,85.80
2017-09-26T16:45:50.134Z,86.00
2017-09-26T16:48:17.702Z,86.20
2017-09-26T16:50:45.319Z,86.30
2017-09-26T16:53:12.887Z,86.40
2017-09-26T16:55:40.467Z,86.30
2017-09-26T16:58:09.596Z,86.10
2017-09-26T17:00:37.164Z,86.10
2017-09-26T17:03:04.741Z,86.10
2017-09-26T17:05:33.134Z,85.90
2017-09-26T17:08:00.819Z,85.60
2017-09-26T17:10:28.390Z,85.80
2017-09-26T17:12:56.802Z,86.80
2017-09-26T17:15:24.371Z,86.50
2017-09-26T17:17:51.954Z,87.30
2017-09-26T17:20:19.606Z,87.90
2017-09-26T17:22:47.212Z,88.50
2017-09-26T17:25:14.778Z,89.00
2017-09-26T17:27:43.171Z,89.60
2017-09-26T17:30:10.767Z,89.60
2017-09-26T17:32:38.372Z,90.00
2017-09-26T17:35:06.007Z,90.20
2017-09-26T17:37:33.589Z,90.10
2017-09-26T17:40:01.157Z,90.10
2017-09-26T17:42:28.809Z,90.30
2017-09-26T17:44:57.193Z,90.30
2017-09-26T17:47:24.885Z,90.30
2017-09-26T17:49:54.883Z,90.30
2017-09-26T17:52:23.665Z,90.40
2017-09-26T17:54:51.529Z,90.40
2017-09-26T17:57:22.248Z,90.40
2017-09-26T17:59:50.700Z,90.30
2017-09-26T18:02:19.948Z,90.30
2017-09-26T18:04:47.676Z,90.20
2017-09-26T18:07:15.883Z,90.00
2017-09-26T18:09:45.135Z,90.10
2017-09-26T18:12:13.053Z,90.00
2017-09-26T18:14:41.386Z,90.10
2017-09-26T18:17:08.971Z,90.10
2017-09-26T18:19:37.694Z,90.10
2017-09-26T18:22:08.618Z,90.20
2017-09-26T18:24:38.252Z,90.20
2017-09-26T18:27:07.327Z,90.20
2017-09-26T18:29:37.394Z,90.20
2017-09-26T18:32:05.615Z,90.10
2017-09-26T18:34:33.288Z,90.00
2017-09-26T18:37:00.895Z,90.10
2017-09-26T18:39:29.248Z,90.10
2017-09-26T18:41:57.763Z,90.10
2017-09-26T18:44:25.373Z,89.90
2017-09-26T18:46:53.008Z,89.50
2017-09-26T18:49:20.697Z,89.50
2017-09-26T18:51:48.344Z,89.40
2017-09-26T18:54:18.402Z,89.50
2017-09-26T18:56:46.423Z,89.50
2017-09-26T18:59:17.288Z,89.80
2017-09-26T19:01:45.317Z,89.80
2017-09-26T19:04:16.653Z,89.30
2017-09-26T19:06:45.462Z,89.20
2017-09-26T19:09:13.032Z,89.20
2017-09-26T19:11:41.077Z,89.10
2017-09-26T19:14:10.643Z,89.50
2017-09-26T19:16:38.439Z,89.50
2017-09-26T19:19:06.143Z,89.70
2017-09-26T19:21:36.103Z,90.20
2017-09-26T19:24:11.493Z,90.00
2017-09-26T19:26:40.595Z,90.00
2017-09-26T19:29:09.858Z,90.10
2017-09-26T19:31:37.708Z,90.10
2017-09-26T19:34:06.371Z,90.10
2017-09-26T19:36:34.800Z,90.20
2017-09-26T19:39:03.327Z,90.30
2017-09-26T19:41:32.214Z,90.40
2017-09-26T19:44:03.220Z,90.50
2017-09-26T19:46:33.669Z,90.60
2017-09-26T19:49:03.567Z,90.50
2017-09-26T19:51:32.449Z,90.60
2017-09-26T19:54:01.914Z,90.60
2017-09-26T19:56:31.751Z,90.60
2017-09-26T19:59:02.359Z,90.70
2017-09-26T20:01:30.115Z,90.70
2017-09-26T20:03:57.702Z,90.80
2017-09-26T20:06:26.411Z,90.80
2017-09-26T20:08:53.993Z,90.80
2017-09-26T20:11:21.595Z,90.90
2017-09-26T20:13:49.217Z,90.90
2017-09-26T20:16:17.579Z,90.90
2017-09-26T20:18:45.162Z,90.90
2017-09-26T20:21:12.795Z,90.90
2017-09-26T20:23:40.368Z,91.00
2017-09-26T20:26:07.959Z,91.00
2017-09-26T20:28:35.593Z,91.00
2017-09-26T20:31:03.930Z,91.20
2017-09-26T20:33:31.506Z,91.10
2017-09-26T20:35:59.415Z,91.20
2017-09-26T20:38:27.002Z,91.20
2017-09-26T20:40:55.334Z,91.20
2017-09-26T20:43:22.959Z,91.20
2017-09-26T20:45:50.615Z,91.50
2017-09-26T20:48:19.700Z,91.40
2017-09-26T20:50:47.473Z,91.40
2017-09-26T20:53:15.806Z,91.40
2017-09-26T20:55:43.426Z,91.30
2017-09-26T20:58:11.086Z,91.40
2017-09-26T21:00:38.652Z,91.60
2017-09-26T21:03:06.229Z,91.60
2017-09-26T21:05:33.851Z,92.00
2017-09-26T21:08:02.200Z,91.70
2017-09-26T21:10:30.472Z,91.70
2017-09-26T21:12:58.861Z,91.80
2017-09-26T21:15:26.472Z,91.80
2017-09-26T21:17:54.821Z,91.70
2017-09-26T21:20:22.441Z,91.70
2017-09-26T21:22:50.019Z,92.20
2017-09-26T21:25:18.366Z,91.80
2017-09-26T21:27:45.991Z,91.80
2017-09-26T21:30:13.569Z,91.90
2017-09-26T21:32:41.144Z,92.00
2017-09-26T21:35:08.887Z,92.30
2017-09-26T21:37:36.475Z,92.10
2017-09-26T21:40:04.056Z,92.10
2017-09-26T21:42:32.635Z,92.50
2017-09-26T21:45:00.978Z,92.30
2017-09-26T21:47:28.550Z,92.20
2017-09-26T21:49:56.278Z,92.20
2017-09-26T21:52:24.714Z,92.30
2017-09-26T21:54:52.290Z,92.30
2017-09-26T21:57:20.693Z,92.40
2017-09-26T21:59:48.269Z,92.40
2017-09-26T22:02:15.845Z,92.40
2017-09-26T22:04:44.222Z,92.40
2017-09-26T22:07:11.796Z,92.40
2017-09-26T22:09:39.380Z,92.50
2017-09-26T22:12:06.994Z,92.50
2017-09-26T22:14:34.569Z,92.80
2017-09-26T22:17:02.147Z,92.70
2017-09-26T22:19:29.774Z,92.70
2017-09-26T22:21:58.123Z,92.80
2017-09-26T22:24:26.466Z,92.80
2017-09-26T22:26:55.131Z,92.80
2017-09-26T22:29:22.702Z,92.80
2017-09-26T22:31:51.134Z,92.90
2017-09-26T22:34:18.914Z,92.90
2017-09-26T22:36:47.258Z,93.00
2017-09-26T22:39:14.831Z,93.30
2017-09-26T22:41:43.391Z,93.00
2017-09-26T22:44:11.733Z,93.00
2017-09-26T22:46:39.309Z,92.90
2017-09-26T22:49:07.057Z,93.00
2017-09-26T22:51:34.636Z,93.00
2017-09-26T22:54:02.218Z,93.00
2017-09-26T22:56:29.842Z,93.00
2017-09-26T22:58:57.410Z,93.10
2017-09-26T23:01:25.023Z,93.10
2017-09-26T23:03:52.646Z,93.10
2017-09-26T23:06:20.228Z,93.10
2017-09-26T23:08:47.802Z,93.10
2017-09-26T23:11:16.327Z,93.10
2017-09-26T23:13:43.895Z,93.10
2017-09-26T23:16:12.238Z,92.90
2017-09-26T23:18:40.625Z,93.00
2017-09-26T23:21:08.967Z,92.70
2017-09-26T23:23:36.543Z,92.70
2017-09-26T23:26:04.290Z,92.60
2017-09-26T23:28:32.638Z,92.60
2017-09-26T23:31:00.979Z,92.50
2017-09-26T23:33:28.733Z,92.50
2017-09-26T23:35:56.306Z,92.50
2017-09-26T23:38:24.646Z,92.30
2017-09-26T23:40:52.411Z,92.30
2017-09-26T23:43:20.755Z,92.30
2017-09-26T23:45:48.341Z,92.20
2017-09-26T23:48:15.971Z,92.20
2017-09-26T23:50:43.551Z,92.10
2017-09-26T23:53:11.123Z,92.10
2017-09-26T23:55:38.737Z,91.90
2017-09-26T23:58:06.318Z,91.90
